sensor_id;sensor_type;location;lat;lon;timestamp;temperature;humidity
63313;DHT22;49442;45.640;13.812;2023-12-07T00:01:16;6.20;99.90
63313;DHT22;49442;45.640;13.812;2023-12-07T00:03:42;6.30;99.90
63313;DHT22;49442;45.640;13.812;2023-12-07T00:06:08;6.30;99.90
63313;DHT22;49442;45.640;13.812;2023-12-07T00:08:33;6.30;99.90
63313;DHT22;49442;45.640;13.812;2023-12-07T00:10:59;6.30;99.90
63313;DHT22;49442;45.640;13.812;2023-12-07T00:13:25;6.30;99.90
63313;DHT22;49442;45.640;13.812;2023-12-07T00:15:50;6.20;99.90
63313;DHT22;49442;45.640;13.812;2023-12-07T00:18:16;6.20;99.90
63313;DHT22;49442;45.640;13.812;2023-12-07T00:20:41;6.20;99.90
63313;DHT22;49442;45.640;13.812;2023-12-07T00:23:07;6.20;99.90
63313;DHT22;49442;45.640;13.812;2023-12-07T00:25:33;6.20;99.90
63313;DHT22;49442;45.640;13.812;2023-12-07T00:27:59;6.10;99.90
63313;DHT22;49442;45.640;13.812;2023-12-07T00:30:25;6.10;99.90
63313;DHT22;49442;45.640;13.812;2023-12-07T00:32:51;6.10;99.90
63313;DHT22;49442;45.640;13.812;2023-12-07T00:35:16;6.10;99.90
63313;DHT22;49442;45.640;13.812;2023-12-07T00:37:43;6.10;99.90
63313;DHT22;49442;45.640;13.812;2023-12-07T00:40:09;6.10;99.90
63313;DHT22;49442;45.640;13.812;2023-12-07T00:42:35;6.10;99.90
63313;DHT22;49442;45.640;13.812;2023-12-07T00:45:01;6.10;99.90
63313;DHT22;49442;45.640;13.812;2023-12-07T00:47:26;6.00;99.90
63313;DHT22;49442;45.640;13.812;2023-12-07T00:49:52;6.10;99.90
63313;DHT22;49442;45.640;13.812;2023-12-07T00:52:18;6.00;99.90
63313;DHT22;49442;45.640;13.812;2023-12-07T00:54:43;6.00;99.90
63313;DHT22;49442;45.640;13.812;2023-12-07T00:57:09;6.00;99.90
63313;DHT22;49442;45.640;13.812;2023-12-07T00:59:35;6.00;99.90
63313;DHT22;49442;45.640;13.812;2023-12-07T01:02:02;6.00;99.90
63313;DHT22;49442;45.640;13.812;2023-12-07T01:04:29;6.00;99.90
63313;DHT22;49442;45.640;13.812;2023-12-07T01:06:55;6.00;99.90
63313;DHT22;49442;45.640;13.812;2023-12-07T01:09:21;5.90;99.90
63313;DHT22;49442;45.640;13.812;2023-12-07T01:11:47;5.90;99.90
63313;DHT22;49442;45.640;13.812;2023-12-07T01:14:13;6.00;99.90
63313;DHT22;49442;45.640;13.812;2023-12-07T01:16:39;5.90;99.90
63313;DHT22;49442;45.640;13.812;2023-12-07T01:19:04;5.90;99.90
63313;DHT22;49442;45.640;13.812;2023-12-07T01:21:32;5.90;99.90
63313;DHT22;49442;45.640;13.812;2023-12-07T01:23:58;5.90;99.90
63313;DHT22;49442;45.640;13.812;2023-12-07T01:26:24;5.90;99.90
63313;DHT22;49442;45.640;13.812;2023-12-07T01:28:49;5.90;99.90
63313;DHT22;49442;45.640;13.812;2023-12-07T01:31:15;5.90;99.90
63313;DHT22;49442;45.640;13.812;2023-12-07T01:33:42;5.90;99.90
63313;DHT22;49442;45.640;13.812;2023-12-07T01:36:08;5.90;99.90
63313;DHT22;49442;45.640;13.812;2023-12-07T01:38:35;5.90;99.90
63313;DHT22;49442;45.640;13.812;2023-12-07T01:41:01;5.90;99.90
63313;DHT22;49442;45.640;13.812;2023-12-07T01:43:26;5.80;99.90
63313;DHT22;49442;45.640;13.812;2023-12-07T01:45:54;5.80;99.90
63313;DHT22;49442;45.640;13.812;2023-12-07T01:48:21;5.80;99.90
63313;DHT22;49442;45.640;13.812;2023-12-07T01:50:47;5.90;99.90
63313;DHT22;49442;45.640;13.812;2023-12-07T01:53:13;5.90;99.90
63313;DHT22;49442;45.640;13.812;2023-12-07T01:55:40;5.90;99.90
63313;DHT22;49442;45.640;13.812;2023-12-07T01:58:06;5.90;99.90
63313;DHT22;49442;45.640;13.812;2023-12-07T02:00:33;5.90;99.90
63313;DHT22;49442;45.640;13.812;2023-12-07T02:03:03;5.90;99.90
63313;DHT22;49442;45.640;13.812;2023-12-07T02:05:29;5.90;99.90
63313;DHT22;49442;45.640;13.812;2023-12-07T02:07:57;5.90;99.90
63313;DHT22;49442;45.640;13.812;2023-12-07T02:10:22;5.90;99.90
63313;DHT22;49442;45.640;13.812;2023-12-07T02:12:49;5.90;99.90
63313;DHT22;49442;45.640;13.812;2023-12-07T02:15:14;5.90;99.90
63313;DHT22;49442;45.640;13.812;2023-12-07T02:20:13;5.80;99.90
63313;DHT22;49442;45.640;13.812;2023-12-07T02:22:52;5.80;99.90
63313;DHT22;49442;45.640;13.812;2023-12-07T02:25:19;5.80;99.90
63313;DHT22;49442;45.640;13.812;2023-12-07T02:27:48;5.80;99.90
63313;DHT22;49442;45.640;13.812;2023-12-07T02:30:14;5.80;99.90
63313;DHT22;49442;45.640;13.812;2023-12-07T02:32:42;5.80;99.90
63313;DHT22;49442;45.640;13.812;2023-12-07T02:35:10;5.80;99.90
63313;DHT22;49442;45.640;13.812;2023-12-07T02:37:49;5.80;99.90
63313;DHT22;49442;45.640;13.812;2023-12-07T02:40:19;5.80;99.90
63313;DHT22;49442;45.640;13.812;2023-12-07T02:42:46;5.80;99.90
63313;DHT22;49442;45.640;13.812;2023-12-07T02:45:13;5.70;99.90
63313;DHT22;49442;45.640;13.812;2023-12-07T02:47:40;5.80;99.90
63313;DHT22;49442;45.640;13.812;2023-12-07T02:50:07;5.80;99.90
63313;DHT22;49442;45.640;13.812;2023-12-07T02:52:33;5.80;99.90
63313;DHT22;49442;45.640;13.812;2023-12-07T02:54:59;5.80;99.90
63313;DHT22;49442;45.640;13.812;2023-12-07T02:57:25;5.80;99.90
63313;DHT22;49442;45.640;13.812;2023-12-07T02:59:50;5.80;99.90
63313;DHT22;49442;45.640;13.812;2023-12-07T03:02:16;5.80;99.90
63313;DHT22;49442;45.640;13.812;2023-12-07T03:04:42;5.80;99.90
63313;DHT22;49442;45.640;13.812;2023-12-07T03:07:07;5.80;99.90
63313;DHT22;49442;45.640;13.812;2023-12-07T03:09:33;5.80;99.90
63313;DHT22;49442;45.640;13.812;2023-12-07T03:11:59;5.80;99.90
63313;DHT22;49442;45.640;13.812;2023-12-07T03:14:24;5.80;99.90
63313;DHT22;49442;45.640;13.812;2023-12-07T03:16:50;5.80;99.90
63313;DHT22;49442;45.640;13.812;2023-12-07T03:19:15;5.80;99.90
63313;DHT22;49442;45.640;13.812;2023-12-07T03:21:42;5.80;99.90
63313;DHT22;49442;45.640;13.812;2023-12-07T03:24:08;5.80;99.90
63313;DHT22;49442;45.640;13.812;2023-12-07T03:26:34;5.80;99.90
63313;DHT22;49442;45.640;13.812;2023-12-07T03:29:00;5.80;99.90
63313;DHT22;49442;45.640;13.812;2023-12-07T03:31:29;5.80;99.90
63313;DHT22;49442;45.640;13.812;2023-12-07T03:33:55;5.80;99.90
63313;DHT22;49442;45.640;13.812;2023-12-07T03:36:22;5.80;99.90
63313;DHT22;49442;45.640;13.812;2023-12-07T03:38:48;5.80;99.90
63313;DHT22;49442;45.640;13.812;2023-12-07T03:41:14;5.80;99.90
63313;DHT22;49442;45.640;13.812;2023-12-07T03:43:40;5.90;99.90
63313;DHT22;49442;45.640;13.812;2023-12-07T03:46:07;5.80;99.90
63313;DHT22;49442;45.640;13.812;2023-12-07T03:48:34;5.80;99.90
63313;DHT22;49442;45.640;13.812;2023-12-07T03:51:03;5.80;99.90
63313;DHT22;49442;45.640;13.812;2023-12-07T03:53:30;5.80;99.90
63313;DHT22;49442;45.640;13.812;2023-12-07T03:55:58;5.80;99.90
63313;DHT22;49442;45.640;13.812;2023-12-07T03:58:28;5.80;99.90
63313;DHT22;49442;45.640;13.812;2023-12-07T04:00:53;5.80;99.90
63313;DHT22;49442;45.640;13.812;2023-12-07T04:03:19;5.80;99.90
63313;DHT22;49442;45.640;13.812;2023-12-07T04:05:45;5.80;99.90
63313;DHT22;49442;45.640;13.812;2023-12-07T04:08:10;5.80;99.90
63313;DHT22;49442;45.640;13.812;2023-12-07T04:10:36;5.70;99.90
63313;DHT22;49442;45.640;13.812;2023-12-07T04:13:02;5.80;99.90
63313;DHT22;49442;45.640;13.812;2023-12-07T04:15:28;5.70;99.90
63313;DHT22;49442;45.640;13.812;2023-12-07T04:17:54;5.70;99.90
63313;DHT22;49442;45.640;13.812;2023-12-07T04:20:20;5.70;99.90
63313;DHT22;49442;45.640;13.812;2023-12-07T04:22:46;5.70;99.90
63313;DHT22;49442;45.640;13.812;2023-12-07T04:25:11;5.70;99.90
63313;DHT22;49442;45.640;13.812;2023-12-07T04:27:37;5.70;99.90
63313;DHT22;49442;45.640;13.812;2023-12-07T04:30:03;5.70;99.90
63313;DHT22;49442;45.640;13.812;2023-12-07T04:32:29;5.70;99.90
63313;DHT22;49442;45.640;13.812;2023-12-07T04:34:55;5.70;99.90
63313;DHT22;49442;45.640;13.812;2023-12-07T04:37:21;5.70;99.90
63313;DHT22;49442;45.640;13.812;2023-12-07T04:39:47;5.70;99.90
63313;DHT22;49442;45.640;13.812;2023-12-07T04:42:12;5.70;99.90
63313;DHT22;49442;45.640;13.812;2023-12-07T04:44:38;5.70;99.90
63313;DHT22;49442;45.640;13.812;2023-12-07T04:47:04;5.70;99.90
63313;DHT22;49442;45.640;13.812;2023-12-07T04:49:30;5.70;99.90
63313;DHT22;49442;45.640;13.812;2023-12-07T04:51:55;5.70;99.90
63313;DHT22;49442;45.640;13.812;2023-12-07T04:54:21;5.70;99.90
63313;DHT22;49442;45.640;13.812;2023-12-07T04:56:47;5.70;99.90
63313;DHT22;49442;45.640;13.812;2023-12-07T04:59:13;5.70;99.90
63313;DHT22;49442;45.640;13.812;2023-12-07T05:01:38;5.70;99.90
63313;DHT22;49442;45.640;13.812;2023-12-07T05:04:04;5.70;99.90
63313;DHT22;49442;45.640;13.812;2023-12-07T05:06:34;5.70;99.90
63313;DHT22;49442;45.640;13.812;2023-12-07T05:09:00;5.80;99.90
63313;DHT22;49442;45.640;13.812;2023-12-07T05:11:26;5.70;99.90
63313;DHT22;49442;45.640;13.812;2023-12-07T05:13:52;5.70;99.90
63313;DHT22;49442;45.640;13.812;2023-12-07T05:16:17;5.70;99.90
63313;DHT22;49442;45.640;13.812;2023-12-07T05:18:43;5.70;99.90
63313;DHT22;49442;45.640;13.812;2023-12-07T05:21:09;5.80;99.90
63313;DHT22;49442;45.640;13.812;2023-12-07T05:23:35;5.80;99.90
63313;DHT22;49442;45.640;13.812;2023-12-07T05:26:01;5.80;99.90
63313;DHT22;49442;45.640;13.812;2023-12-07T05:28:27;5.80;99.90
63313;DHT22;49442;45.640;13.812;2023-12-07T05:30:53;5.80;99.90
63313;DHT22;49442;45.640;13.812;2023-12-07T05:33:19;5.80;99.90
63313;DHT22;49442;45.640;13.812;2023-12-07T05:35:45;5.80;99.90
63313;DHT22;49442;45.640;13.812;2023-12-07T05:38:11;5.80;99.90
63313;DHT22;49442;45.640;13.812;2023-12-07T05:40:37;5.90;99.90
63313;DHT22;49442;45.640;13.812;2023-12-07T05:43:02;5.90;99.90
63313;DHT22;49442;45.640;13.812;2023-12-07T05:45:29;5.90;99.90
63313;DHT22;49442;45.640;13.812;2023-12-07T05:47:55;5.90;99.90
63313;DHT22;49442;45.640;13.812;2023-12-07T05:50:21;5.90;99.90
63313;DHT22;49442;45.640;13.812;2023-12-07T05:52:47;5.90;99.90
63313;DHT22;49442;45.640;13.812;2023-12-07T05:55:13;5.90;99.90
63313;DHT22;49442;45.640;13.812;2023-12-07T05:57:39;5.90;99.90
63313;DHT22;49442;45.640;13.812;2023-12-07T06:00:06;5.90;99.90
63313;DHT22;49442;45.640;13.812;2023-12-07T06:02:35;5.90;99.90
63313;DHT22;49442;45.640;13.812;2023-12-07T06:05:02;5.90;99.90
63313;DHT22;49442;45.640;13.812;2023-12-07T06:07:29;5.90;99.90
63313;DHT22;49442;45.640;13.812;2023-12-07T06:09:55;5.90;99.90
63313;DHT22;49442;45.640;13.812;2023-12-07T06:12:21;5.90;99.90
63313;DHT22;49442;45.640;13.812;2023-12-07T06:14:50;5.90;99.90
63313;DHT22;49442;45.640;13.812;2023-12-07T06:17:16;5.90;99.90
63313;DHT22;49442;45.640;13.812;2023-12-07T06:19:42;5.90;99.90
63313;DHT22;49442;45.640;13.812;2023-12-07T06:22:08;5.90;99.90
63313;DHT22;49442;45.640;13.812;2023-12-07T06:24:34;5.80;99.90
63313;DHT22;49442;45.640;13.812;2023-12-07T06:27:01;5.80;99.90
63313;DHT22;49442;45.640;13.812;2023-12-07T06:29:27;5.90;99.90
63313;DHT22;49442;45.640;13.812;2023-12-07T06:31:54;5.80;99.90
63313;DHT22;49442;45.640;13.812;2023-12-07T06:34:20;5.80;99.90
63313;DHT22;49442;45.640;13.812;2023-12-07T06:36:46;5.80;99.90
63313;DHT22;49442;45.640;13.812;2023-12-07T06:39:13;5.80;99.90
63313;DHT22;49442;45.640;13.812;2023-12-07T06:41:39;5.80;99.90
63313;DHT22;49442;45.640;13.812;2023-12-07T06:44:05;5.90;99.90
63313;DHT22;49442;45.640;13.812;2023-12-07T06:46:31;5.80;99.90
63313;DHT22;49442;45.640;13.812;2023-12-07T06:48:57;5.90;99.90
63313;DHT22;49442;45.640;13.812;2023-12-07T06:51:22;5.90;99.90
63313;DHT22;49442;45.640;13.812;2023-12-07T06:53:48;5.90;99.90
63313;DHT22;49442;45.640;13.812;2023-12-07T06:56:14;5.90;99.90
63313;DHT22;49442;45.640;13.812;2023-12-07T06:58:40;5.90;99.90
63313;DHT22;49442;45.640;13.812;2023-12-07T07:01:06;5.90;99.90
63313;DHT22;49442;45.640;13.812;2023-12-07T07:03:32;5.90;99.90
63313;DHT22;49442;45.640;13.812;2023-12-07T07:05:58;5.90;99.90
63313;DHT22;49442;45.640;13.812;2023-12-07T07:08:25;6.00;99.90
63313;DHT22;49442;45.640;13.812;2023-12-07T07:10:50;6.00;99.90
63313;DHT22;49442;45.640;13.812;2023-12-07T07:13:16;6.10;99.90
63313;DHT22;49442;45.640;13.812;2023-12-07T07:15:43;6.10;99.90
63313;DHT22;49442;45.640;13.812;2023-12-07T07:18:09;6.10;99.90
63313;DHT22;49442;45.640;13.812;2023-12-07T07:20:35;6.20;99.90
63313;DHT22;49442;45.640;13.812;2023-12-07T07:23:00;6.20;99.90
63313;DHT22;49442;45.640;13.812;2023-12-07T07:25:26;6.20;99.90
63313;DHT22;49442;45.640;13.812;2023-12-07T07:27:52;6.20;99.90
63313;DHT22;49442;45.640;13.812;2023-12-07T07:30:23;6.20;99.90
63313;DHT22;49442;45.640;13.812;2023-12-07T07:32:49;6.20;99.90
63313;DHT22;49442;45.640;13.812;2023-12-07T07:35:15;6.30;99.90
63313;DHT22;49442;45.640;13.812;2023-12-07T07:37:41;6.30;99.90
63313;DHT22;49442;45.640;13.812;2023-12-07T07:40:10;6.20;99.90
63313;DHT22;49442;45.640;13.812;2023-12-07T07:42:38;6.20;99.90
63313;DHT22;49442;45.640;13.812;2023-12-07T07:45:06;6.30;99.90
63313;DHT22;49442;45.640;13.812;2023-12-07T07:47:32;6.30;99.90
63313;DHT22;49442;45.640;13.812;2023-12-07T07:49:58;6.40;99.90
63313;DHT22;49442;45.640;13.812;2023-12-07T07:52:24;6.50;99.90
63313;DHT22;49442;45.640;13.812;2023-12-07T07:54:50;6.80;99.90
63313;DHT22;49442;45.640;13.812;2023-12-07T07:57:15;7.00;99.90
63313;DHT22;49442;45.640;13.812;2023-12-07T07:59:41;7.30;99.90
63313;DHT22;49442;45.640;13.812;2023-12-07T08:02:07;7.60;99.90
63313;DHT22;49442;45.640;13.812;2023-12-07T08:04:32;7.80;99.90
63313;DHT22;49442;45.640;13.812;2023-12-07T08:06:58;8.00;99.90
63313;DHT22;49442;45.640;13.812;2023-12-07T08:09:24;8.20;99.90
63313;DHT22;49442;45.640;13.812;2023-12-07T08:11:49;8.40;99.90
63313;DHT22;49442;45.640;13.812;2023-12-07T08:14:15;8.50;99.90
63313;DHT22;49442;45.640;13.812;2023-12-07T08:16:44;8.50;99.90
63313;DHT22;49442;45.640;13.812;2023-12-07T08:19:12;8.50;99.90
63313;DHT22;49442;45.640;13.812;2023-12-07T08:21:38;8.40;99.90
63313;DHT22;49442;45.640;13.812;2023-12-07T08:24:04;8.30;99.90
63313;DHT22;49442;45.640;13.812;2023-12-07T08:26:31;8.40;99.90
63313;DHT22;49442;45.640;13.812;2023-12-07T08:28:57;8.70;99.90
63313;DHT22;49442;45.640;13.812;2023-12-07T08:31:23;9.40;99.90
63313;DHT22;49442;45.640;13.812;2023-12-07T08:33:51;9.40;99.90
63313;DHT22;49442;45.640;13.812;2023-12-07T08:36:16;9.70;99.90
63313;DHT22;49442;45.640;13.812;2023-12-07T08:38:42;9.30;99.90
63313;DHT22;49442;45.640;13.812;2023-12-07T08:41:08;9.00;99.90
63313;DHT22;49442;45.640;13.812;2023-12-07T08:43:34;8.90;99.90
63313;DHT22;49442;45.640;13.812;2023-12-07T08:45:59;8.90;99.90
63313;DHT22;49442;45.640;13.812;2023-12-07T08:48:25;8.80;99.90
63313;DHT22;49442;45.640;13.812;2023-12-07T08:50:51;8.80;99.90
63313;DHT22;49442;45.640;13.812;2023-12-07T08:53:17;8.80;99.90
63313;DHT22;49442;45.640;13.812;2023-12-07T08:55:42;8.80;99.90
63313;DHT22;49442;45.640;13.812;2023-12-07T08:58:08;8.90;99.90
63313;DHT22;49442;45.640;13.812;2023-12-07T09:00:37;9.00;99.90
63313;DHT22;49442;45.640;13.812;2023-12-07T09:03:02;9.10;99.90
63313;DHT22;49442;45.640;13.812;2023-12-07T09:05:28;9.10;99.90
63313;DHT22;49442;45.640;13.812;2023-12-07T09:07:55;9.30;99.90
63313;DHT22;49442;45.640;13.812;2023-12-07T09:10:22;9.50;99.90
63313;DHT22;49442;45.640;13.812;2023-12-07T09:12:48;9.70;99.90
63313;DHT22;49442;45.640;13.812;2023-12-07T09:15:14;9.80;99.90
63313;DHT22;49442;45.640;13.812;2023-12-07T09:17:41;10.00;99.90
63313;DHT22;49442;45.640;13.812;2023-12-07T09:20:08;10.10;99.90
63313;DHT22;49442;45.640;13.812;2023-12-07T09:22:44;10.20;99.90
63313;DHT22;49442;45.640;13.812;2023-12-07T09:25:10;10.20;99.90
63313;DHT22;49442;45.640;13.812;2023-12-07T09:27:37;10.40;99.90
63313;DHT22;49442;45.640;13.812;2023-12-07T09:30:07;10.40;99.90
63313;DHT22;49442;45.640;13.812;2023-12-07T09:32:37;10.50;99.90
63313;DHT22;49442;45.640;13.812;2023-12-07T09:35:05;10.60;99.90
63313;DHT22;49442;45.640;13.812;2023-12-07T09:37:32;10.70;99.90
63313;DHT22;49442;45.640;13.812;2023-12-07T09:39:58;10.70;99.90
63313;DHT22;49442;45.640;13.812;2023-12-07T09:42:24;11.00;99.90
63313;DHT22;49442;45.640;13.812;2023-12-07T09:44:50;11.30;99.90
63313;DHT22;49442;45.640;13.812;2023-12-07T09:47:16;11.40;99.90
63313;DHT22;49442;45.640;13.812;2023-12-07T09:49:42;11.40;99.90
63313;DHT22;49442;45.640;13.812;2023-12-07T09:52:08;11.30;99.90
63313;DHT22;49442;45.640;13.812;2023-12-07T09:54:36;11.20;99.90
63313;DHT22;49442;45.640;13.812;2023-12-07T09:57:05;11.10;99.90
63313;DHT22;49442;45.640;13.812;2023-12-07T09:59:31;11.10;99.90
63313;DHT22;49442;45.640;13.812;2023-12-07T10:01:56;11.00;99.90
63313;DHT22;49442;45.640;13.812;2023-12-07T10:04:23;11.00;99.90
63313;DHT22;49442;45.640;13.812;2023-12-07T10:06:52;11.00;99.90
63313;DHT22;49442;45.640;13.812;2023-12-07T10:09:18;11.10;99.90
63313;DHT22;49442;45.640;13.812;2023-12-07T10:11:47;11.10;99.90
63313;DHT22;49442;45.640;13.812;2023-12-07T10:14:13;11.10;99.90
63313;DHT22;49442;45.640;13.812;2023-12-07T10:16:52;11.10;99.90
63313;DHT22;49442;45.640;13.812;2023-12-07T10:19:22;11.10;99.90
63313;DHT22;49442;45.640;13.812;2023-12-07T10:21:48;11.20;99.90
63313;DHT22;49442;45.640;13.812;2023-12-07T10:24:16;11.30;99.90
63313;DHT22;49442;45.640;13.812;2023-12-07T10:26:43;11.70;99.90
63313;DHT22;49442;45.640;13.812;2023-12-07T10:29:09;12.00;99.90
63313;DHT22;49442;45.640;13.812;2023-12-07T10:31:36;12.20;99.90
63313;DHT22;49442;45.640;13.812;2023-12-07T10:34:02;12.20;99.90
63313;DHT22;49442;45.640;13.812;2023-12-07T10:36:28;12.50;99.90
63313;DHT22;49442;45.640;13.812;2023-12-07T10:38:54;12.80;99.90
63313;DHT22;49442;45.640;13.812;2023-12-07T10:41:20;12.80;99.90
63313;DHT22;49442;45.640;13.812;2023-12-07T10:44:01;12.70;99.90
63313;DHT22;49442;45.640;13.812;2023-12-07T10:46:29;12.40;99.90
63313;DHT22;49442;45.640;13.812;2023-12-07T10:49:04;12.60;99.90
63313;DHT22;49442;45.640;13.812;2023-12-07T10:51:51;12.50;99.90
63313;DHT22;49442;45.640;13.812;2023-12-07T10:54:22;12.40;99.90
63313;DHT22;49442;45.640;13.812;2023-12-07T10:56:48;12.40;99.90
63313;DHT22;49442;45.640;13.812;2023-12-07T10:59:16;12.20;99.90
63313;DHT22;49442;45.640;13.812;2023-12-07T11:01:43;12.20;99.90
63313;DHT22;49442;45.640;13.812;2023-12-07T11:04:13;12.20;99.90
63313;DHT22;49442;45.640;13.812;2023-12-07T11:06:46;12.30;99.90
63313;DHT22;49442;45.640;13.812;2023-12-07T11:09:19;12.20;99.90
63313;DHT22;49442;45.640;13.812;2023-12-07T11:14:14;12.10;99.90
63313;DHT22;49442;45.640;13.812;2023-12-07T11:16:43;12.10;99.90
63313;DHT22;49442;45.640;13.812;2023-12-07T11:21:56;12.10;99.90
63313;DHT22;49442;45.640;13.812;2023-12-07T11:24:23;12.10;99.90
63313;DHT22;49442;45.640;13.812;2023-12-07T11:26:52;12.10;99.90
63313;DHT22;49442;45.640;13.812;2023-12-07T11:29:21;12.30;99.90
63313;DHT22;49442;45.640;13.812;2023-12-07T11:31:49;12.40;99.90
63313;DHT22;49442;45.640;13.812;2023-12-07T11:34:36;12.30;99.90
63313;DHT22;49442;45.640;13.812;2023-12-07T11:37:02;12.40;99.90
63313;DHT22;49442;45.640;13.812;2023-12-07T11:39:29;12.60;99.90
63313;DHT22;49442;45.640;13.812;2023-12-07T11:42:15;12.80;99.90
63313;DHT22;49442;45.640;13.812;2023-12-07T11:44:42;13.10;99.90
63313;DHT22;49442;45.640;13.812;2023-12-07T11:47:12;13.10;99.90
63313;DHT22;49442;45.640;13.812;2023-12-07T11:49:45;12.90;99.90
63313;DHT22;49442;45.640;13.812;2023-12-07T11:52:16;12.70;99.90
63313;DHT22;49442;45.640;13.812;2023-12-07T11:54:46;12.70;99.90
63313;DHT22;49442;45.640;13.812;2023-12-07T11:57:16;13.20;99.90
63313;DHT22;49442;45.640;13.812;2023-12-07T11:59:44;13.50;99.90
63313;DHT22;49442;45.640;13.812;2023-12-07T12:02:13;13.50;99.90
63313;DHT22;49442;45.640;13.812;2023-12-07T12:04:39;13.20;99.90
63313;DHT22;49442;45.640;13.812;2023-12-07T12:07:06;12.90;99.90
63313;DHT22;49442;45.640;13.812;2023-12-07T12:09:32;12.60;99.90
63313;DHT22;49442;45.640;13.812;2023-12-07T12:11:59;12.40;99.90
63313;DHT22;49442;45.640;13.812;2023-12-07T12:14:28;12.30;99.90
63313;DHT22;49442;45.640;13.812;2023-12-07T12:16:54;12.20;99.90
63313;DHT22;49442;45.640;13.812;2023-12-07T12:19:22;12.20;99.90
63313;DHT22;49442;45.640;13.812;2023-12-07T12:21:49;12.20;99.90
63313;DHT22;49442;45.640;13.812;2023-12-07T12:24:15;12.10;99.90
63313;DHT22;49442;45.640;13.812;2023-12-07T12:26:42;12.00;99.90
63313;DHT22;49442;45.640;13.812;2023-12-07T12:29:08;11.80;99.90
63313;DHT22;49442;45.640;13.812;2023-12-07T12:31:37;11.60;99.90
63313;DHT22;49442;45.640;13.812;2023-12-07T12:34:05;11.60;99.90
63313;DHT22;49442;45.640;13.812;2023-12-07T12:36:31;11.70;99.90
63313;DHT22;49442;45.640;13.812;2023-12-07T12:38:56;11.80;99.90
63313;DHT22;49442;45.640;13.812;2023-12-07T12:41:22;11.90;99.90
63313;DHT22;49442;45.640;13.812;2023-12-07T12:43:49;11.90;99.90
63313;DHT22;49442;45.640;13.812;2023-12-07T12:46:16;11.90;99.90
63313;DHT22;49442;45.640;13.812;2023-12-07T12:48:58;11.90;99.90
63313;DHT22;49442;45.640;13.812;2023-12-07T12:51:29;11.90;99.90
63313;DHT22;49442;45.640;13.812;2023-12-07T12:53:58;11.80;99.90
63313;DHT22;49442;45.640;13.812;2023-12-07T12:56:26;11.80;99.90
63313;DHT22;49442;45.640;13.812;2023-12-07T12:58:53;11.80;99.90
63313;DHT22;49442;45.640;13.812;2023-12-07T13:01:23;11.60;99.90
63313;DHT22;49442;45.640;13.812;2023-12-07T13:03:49;11.40;99.90
63313;DHT22;49442;45.640;13.812;2023-12-07T13:06:15;11.30;99.90
63313;DHT22;49442;45.640;13.812;2023-12-07T13:08:45;11.40;99.90
63313;DHT22;49442;45.640;13.812;2023-12-07T13:11:17;11.50;99.90
63313;DHT22;49442;45.640;13.812;2023-12-07T13:13:44;11.50;99.90
63313;DHT22;49442;45.640;13.812;2023-12-07T13:16:10;11.60;99.90
63313;DHT22;49442;45.640;13.812;2023-12-07T13:18:37;11.60;99.90
63313;DHT22;49442;45.640;13.812;2023-12-07T13:21:03;11.60;99.90
63313;DHT22;49442;45.640;13.812;2023-12-07T13:23:29;11.50;99.90
63313;DHT22;49442;45.640;13.812;2023-12-07T13:25:55;11.60;99.90
63313;DHT22;49442;45.640;13.812;2023-12-07T13:28:20;11.50;99.90
63313;DHT22;49442;45.640;13.812;2023-12-07T13:30:46;11.50;99.90
63313;DHT22;49442;45.640;13.812;2023-12-07T13:33:12;11.40;99.90
63313;DHT22;49442;45.640;13.812;2023-12-07T13:35:37;11.30;99.90
63313;DHT22;49442;45.640;13.812;2023-12-07T13:38:03;11.30;99.90
63313;DHT22;49442;45.640;13.812;2023-12-07T13:40:30;11.30;99.90
63313;DHT22;49442;45.640;13.812;2023-12-07T13:42:55;11.30;99.90
63313;DHT22;49442;45.640;13.812;2023-12-07T13:45:21;11.30;99.90
63313;DHT22;49442;45.640;13.812;2023-12-07T13:47:47;11.30;99.90
63313;DHT22;49442;45.640;13.812;2023-12-07T13:50:13;11.30;99.90
63313;DHT22;49442;45.640;13.812;2023-12-07T13:52:39;11.40;99.90
63313;DHT22;49442;45.640;13.812;2023-12-07T13:55:05;11.60;99.90
63313;DHT22;49442;45.640;13.812;2023-12-07T13:57:30;11.60;99.90
63313;DHT22;49442;45.640;13.812;2023-12-07T13:59:56;11.40;99.90
63313;DHT22;49442;45.640;13.812;2023-12-07T14:02:22;11.10;99.90
63313;DHT22;49442;45.640;13.812;2023-12-07T14:04:49;11.00;99.90
63313;DHT22;49442;45.640;13.812;2023-12-07T14:07:19;10.90;99.90
63313;DHT22;49442;45.640;13.812;2023-12-07T14:09:47;10.80;99.90
63313;DHT22;49442;45.640;13.812;2023-12-07T14:12:13;10.70;99.90
63313;DHT22;49442;45.640;13.812;2023-12-07T14:14:40;10.60;99.90
63313;DHT22;49442;45.640;13.812;2023-12-07T14:17:06;10.40;99.90
63313;DHT22;49442;45.640;13.812;2023-12-07T14:19:32;10.30;99.90
63313;DHT22;49442;45.640;13.812;2023-12-07T14:21:58;10.30;99.90
63313;DHT22;49442;45.640;13.812;2023-12-07T14:24:25;10.10;99.90
63313;DHT22;49442;45.640;13.812;2023-12-07T14:26:53;10.10;99.90
63313;DHT22;49442;45.640;13.812;2023-12-07T14:29:19;10.20;99.90
63313;DHT22;49442;45.640;13.812;2023-12-07T14:31:47;10.30;99.90
63313;DHT22;49442;45.640;13.812;2023-12-07T14:34:14;10.30;99.90
63313;DHT22;49442;45.640;13.812;2023-12-07T14:36:41;10.30;99.90
63313;DHT22;49442;45.640;13.812;2023-12-07T14:39:07;10.10;99.90
63313;DHT22;49442;45.640;13.812;2023-12-07T14:41:33;10.00;99.90
63313;DHT22;49442;45.640;13.812;2023-12-07T14:43:59;9.80;99.90
63313;DHT22;49442;45.640;13.812;2023-12-07T14:46:25;9.70;99.90
63313;DHT22;49442;45.640;13.812;2023-12-07T14:48:50;9.60;99.90
63313;DHT22;49442;45.640;13.812;2023-12-07T14:51:19;9.40;99.90
63313;DHT22;49442;45.640;13.812;2023-12-07T14:53:48;9.40;99.90
63313;DHT22;49442;45.640;13.812;2023-12-07T14:56:13;9.30;99.90
63313;DHT22;49442;45.640;13.812;2023-12-07T14:58:39;9.20;99.90
63313;DHT22;49442;45.640;13.812;2023-12-07T15:01:09;9.00;99.90
63313;DHT22;49442;45.640;13.812;2023-12-07T15:03:34;8.80;99.90
63313;DHT22;49442;45.640;13.812;2023-12-07T15:06:01;8.60;99.90
63313;DHT22;49442;45.640;13.812;2023-12-07T15:08:27;8.50;99.90
63313;DHT22;49442;45.640;13.812;2023-12-07T15:10:52;8.30;99.90
63313;DHT22;49442;45.640;13.812;2023-12-07T15:13:20;8.20;99.90
63313;DHT22;49442;45.640;13.812;2023-12-07T15:15:46;8.10;99.90
63313;DHT22;49442;45.640;13.812;2023-12-07T15:18:11;8.10;99.90
63313;DHT22;49442;45.640;13.812;2023-12-07T15:20:37;8.00;99.90
63313;DHT22;49442;45.640;13.812;2023-12-07T15:23:03;7.90;99.90
63313;DHT22;49442;45.640;13.812;2023-12-07T15:25:29;7.80;99.90
63313;DHT22;49442;45.640;13.812;2023-12-07T15:27:55;7.80;99.90
63313;DHT22;49442;45.640;13.812;2023-12-07T15:30:21;7.70;99.90